sensor_id;sensor_type;location;lat;lon;timestamp;P1;durP1;ratioP1;P2;durP2;ratioP2
72427;SDS011;60419;48.880;18.036;2023-02-26T00:02:20;5.50;;;3.85;;
72427;SDS011;60419;48.880;18.036;2023-02-26T00:05:06;6.10;;;3.70;;
72427;SDS011;60419;48.880;18.036;2023-02-26T00:07:51;5.50;;;3.88;;
72427;SDS011;60419;48.880;18.036;2023-02-26T00:10:37;5.63;;;3.83;;
72427;SDS011;60419;48.880;18.036;2023-02-26T00:13:22;4.75;;;3.53;;
72427;SDS011;60419;48.880;18.036;2023-02-26T00:16:30;5.15;;;3.58;;
72427;SDS011;60419;48.880;18.036;2023-02-26T00:19:19;4.85;;;2.90;;
72427;SDS011;60419;48.880;18.036;2023-02-26T00:22:04;4.68;;;3.28;;
72427;SDS011;60419;48.880;18.036;2023-02-26T00:24:50;4.15;;;3.20;;
72427;SDS011;60419;48.880;18.036;2023-02-26T00:27:36;4.82;;;3.38;;
72427;SDS011;60419;48.880;18.036;2023-02-26T00:30:21;5.25;;;3.38;;
72427;SDS011;60419;48.880;18.036;2023-02-26T00:33:07;4.35;;;3.10;;
72427;SDS011;60419;48.880;18.036;2023-02-26T00:36:11;4.57;;;3.42;;
72427;SDS011;60419;48.880;18.036;2023-02-26T00:39:01;4.85;;;3.22;;
72427;SDS011;60419;48.880;18.036;2023-02-26T00:41:51;5.28;;;3.80;;
72427;SDS011;60419;48.880;18.036;2023-02-26T00:44:37;5.75;;;3.35;;
72427;SDS011;60419;48.880;18.036;2023-02-26T00:51:06;5.55;;;3.83;;
72427;SDS011;60419;48.880;18.036;2023-02-26T00:54:02;5.47;;;3.80;;
72427;SDS011;60419;48.880;18.036;2023-02-26T00:56:54;6.95;;;3.83;;
72427;SDS011;60419;48.880;18.036;2023-02-26T00:59:41;7.25;;;3.85;;
72427;SDS011;60419;48.880;18.036;2023-02-26T01:02:27;5.85;;;4.13;;
72427;SDS011;60419;48.880;18.036;2023-02-26T01:05:13;7.20;;;4.10;;
72427;SDS011;60419;48.880;18.036;2023-02-26T01:08:05;6.22;;;4.05;;
72427;SDS011;60419;48.880;18.036;2023-02-26T01:10:56;5.53;;;3.75;;
72427;SDS011;60419;48.880;18.036;2023-02-26T01:13:42;5.32;;;3.60;;
72427;SDS011;60419;48.880;18.036;2023-02-26T01:16:29;5.53;;;3.67;;
72427;SDS011;60419;48.880;18.036;2023-02-26T01:19:32;7.30;;;4.43;;
72427;SDS011;60419;48.880;18.036;2023-02-26T01:22:24;7.07;;;4.55;;
72427;SDS011;60419;48.880;18.036;2023-02-26T01:28:11;7.30;;;4.93;;
72427;SDS011;60419;48.880;18.036;2023-02-26T01:30:57;6.50;;;4.30;;
72427;SDS011;60419;48.880;18.036;2023-02-26T01:33:47;5.40;;;4.22;;
72427;SDS011;60419;48.880;18.036;2023-02-26T01:36:40;6.30;;;4.22;;
72427;SDS011;60419;48.880;18.036;2023-02-26T01:39:35;5.75;;;4.05;;
72427;SDS011;60419;48.880;18.036;2023-02-26T01:42:41;6.68;;;4.07;;
72427;SDS011;60419;48.880;18.036;2023-02-26T01:45:31;5.40;;;3.67;;
72427;SDS011;60419;48.880;18.036;2023-02-26T01:51:51;5.45;;;3.47;;
72427;SDS011;60419;48.880;18.036;2023-02-26T01:54:38;6.30;;;3.85;;
72427;SDS011;60419;48.880;18.036;2023-02-26T01:57:24;4.65;;;3.25;;
72427;SDS011;60419;48.880;18.036;2023-02-26T02:00:09;5.75;;;3.55;;
72427;SDS011;60419;48.880;18.036;2023-02-26T02:02:55;4.65;;;2.90;;
72427;SDS011;60419;48.880;18.036;2023-02-26T02:05:42;5.35;;;3.20;;
72427;SDS011;60419;48.880;18.036;2023-02-26T02:08:32;3.88;;;2.72;;
72427;SDS011;60419;48.880;18.036;2023-02-26T02:11:19;5.35;;;2.28;;
72427;SDS011;60419;48.880;18.036;2023-02-26T02:35:53;2.50;;;1.58;;
72427;SDS011;60419;48.880;18.036;2023-02-26T02:38:57;3.30;;;1.80;;
72427;SDS011;60419;48.880;18.036;2023-02-26T02:41:58;2.85;;;1.70;;
72427;SDS011;60419;48.880;18.036;2023-02-26T02:47:38;3.22;;;1.73;;
72427;SDS011;60419;48.880;18.036;2023-02-26T02:50:33;3.72;;;2.05;;
72427;SDS011;60419;48.880;18.036;2023-02-26T02:53:23;3.15;;;1.80;;
72427;SDS011;60419;48.880;18.036;2023-02-26T02:56:37;2.72;;;1.88;;
72427;SDS011;60419;48.880;18.036;2023-02-26T02:59:38;3.90;;;1.80;;
72427;SDS011;60419;48.880;18.036;2023-02-26T03:05:22;3.08;;;2.10;;
72427;SDS011;60419;48.880;18.036;2023-02-26T03:08:08;4.22;;;1.90;;
72427;SDS011;60419;48.880;18.036;2023-02-26T03:10:56;2.25;;;1.48;;
72427;SDS011;60419;48.880;18.036;2023-02-26T03:13:41;3.15;;;1.80;;
72427;SDS011;60419;48.880;18.036;2023-02-26T03:22:41;3.85;;;1.85;;
72427;SDS011;60419;48.880;18.036;2023-02-26T03:25:40;3.05;;;1.75;;
72427;SDS011;60419;48.880;18.036;2023-02-26T03:28:38;2.90;;;1.90;;
72427;SDS011;60419;48.880;18.036;2023-02-26T03:31:40;3.15;;;1.63;;
72427;SDS011;60419;48.880;18.036;2023-02-26T03:37:30;3.15;;;1.80;;
72427;SDS011;60419;48.880;18.036;2023-02-26T03:40:28;2.90;;;1.70;;
72427;SDS011;60419;48.880;18.036;2023-02-26T03:43:23;3.33;;;2.00;;
72427;SDS011;60419;48.880;18.036;2023-02-26T03:46:15;3.80;;;1.95;;
72427;SDS011;60419;48.880;18.036;2023-02-26T03:49:08;3.30;;;1.67;;
72427;SDS011;60419;48.880;18.036;2023-02-26T03:51:57;3.83;;;1.80;;
72427;SDS011;60419;48.880;18.036;2023-02-26T03:54:47;3.53;;;1.70;;
72427;SDS011;60419;48.880;18.036;2023-02-26T03:57:36;3.85;;;2.00;;
72427;SDS011;60419;48.880;18.036;2023-02-26T04:00:22;3.83;;;1.98;;
72427;SDS011;60419;48.880;18.036;2023-02-26T04:03:13;4.32;;;2.03;;
72427;SDS011;60419;48.880;18.036;2023-02-26T04:06:03;5.78;;;2.22;;
72427;SDS011;60419;48.880;18.036;2023-02-26T04:08:49;4.70;;;2.40;;
72427;SDS011;60419;48.880;18.036;2023-02-26T04:11:35;3.97;;;2.00;;
72427;SDS011;60419;48.880;18.036;2023-02-26T04:14:22;3.33;;;1.88;;
72427;SDS011;60419;48.880;18.036;2023-02-26T04:17:08;3.90;;;1.80;;
72427;SDS011;60419;48.880;18.036;2023-02-26T04:19:53;5.95;;;2.33;;
72427;SDS011;60419;48.880;18.036;2023-02-26T04:22:38;3.63;;;2.15;;
72427;SDS011;60419;48.880;18.036;2023-02-26T04:25:23;4.78;;;2.00;;
72427;SDS011;60419;48.880;18.036;2023-02-26T04:28:09;6.57;;;2.28;;
72427;SDS011;60419;48.880;18.036;2023-02-26T04:30:54;3.75;;;2.20;;
72427;SDS011;60419;48.880;18.036;2023-02-26T04:33:40;4.03;;;2.20;;
72427;SDS011;60419;48.880;18.036;2023-02-26T04:36:25;5.72;;;2.42;;
72427;SDS011;60419;48.880;18.036;2023-02-26T04:39:10;3.20;;;2.08;;
72427;SDS011;60419;48.880;18.036;2023-02-26T04:41:56;3.42;;;2.25;;
72427;SDS011;60419;48.880;18.036;2023-02-26T04:44:41;4.90;;;2.35;;
72427;SDS011;60419;48.880;18.036;2023-02-26T04:47:27;3.75;;;2.10;;
72427;SDS011;60419;48.880;18.036;2023-02-26T04:50:12;3.58;;;2.45;;
72427;SDS011;60419;48.880;18.036;2023-02-26T04:52:57;3.53;;;1.92;;
72427;SDS011;60419;48.880;18.036;2023-02-26T04:55:42;7.75;;;3.28;;
72427;SDS011;60419;48.880;18.036;2023-02-26T04:58:28;4.80;;;2.63;;
72427;SDS011;60419;48.880;18.036;2023-02-26T05:01:13;5.30;;;2.38;;
72427;SDS011;60419;48.880;18.036;2023-02-26T05:03:59;4.30;;;2.40;;
72427;SDS011;60419;48.880;18.036;2023-02-26T05:06:45;4.55;;;2.30;;
72427;SDS011;60419;48.880;18.036;2023-02-26T05:09:30;4.55;;;2.55;;
72427;SDS011;60419;48.880;18.036;2023-02-26T05:12:16;4.45;;;2.50;;
72427;SDS011;60419;48.880;18.036;2023-02-26T05:15:01;3.90;;;2.60;;
72427;SDS011;60419;48.880;18.036;2023-02-26T05:17:48;3.90;;;2.20;;
72427;SDS011;60419;48.880;18.036;2023-02-26T05:20:33;4.72;;;2.47;;
72427;SDS011;60419;48.880;18.036;2023-02-26T05:23:18;3.92;;;2.15;;
72427;SDS011;60419;48.880;18.036;2023-02-26T05:26:04;4.25;;;2.20;;
72427;SDS011;60419;48.880;18.036;2023-02-26T05:28:49;6.15;;;2.28;;
72427;SDS011;60419;48.880;18.036;2023-02-26T05:31:35;2.95;;;2.00;;
72427;SDS011;60419;48.880;18.036;2023-02-26T05:34:20;4.38;;;2.00;;
72427;SDS011;60419;48.880;18.036;2023-02-26T05:37:05;4.05;;;2.40;;
72427;SDS011;60419;48.880;18.036;2023-02-26T05:39:51;4.80;;;2.47;;
72427;SDS011;60419;48.880;18.036;2023-02-26T05:42:36;4.65;;;2.20;;
72427;SDS011;60419;48.880;18.036;2023-02-26T05:45:23;3.60;;;2.45;;
72427;SDS011;60419;48.880;18.036;2023-02-26T05:48:08;3.28;;;2.20;;
72427;SDS011;60419;48.880;18.036;2023-02-26T05:50:55;3.65;;;2.20;;
72427;SDS011;60419;48.880;18.036;2023-02-26T05:53:40;5.38;;;2.70;;
72427;SDS011;60419;48.880;18.036;2023-02-26T05:56:25;6.07;;;2.63;;
72427;SDS011;60419;48.880;18.036;2023-02-26T05:59:11;3.78;;;2.28;;
72427;SDS011;60419;48.880;18.036;2023-02-26T06:01:56;5.00;;;2.67;;
72427;SDS011;60419;48.880;18.036;2023-02-26T06:04:42;4.05;;;1.90;;
72427;SDS011;60419;48.880;18.036;2023-02-26T06:07:27;6.07;;;2.80;;
72427;SDS011;60419;48.880;18.036;2023-02-26T06:10:13;4.43;;;1.92;;
72427;SDS011;60419;48.880;18.036;2023-02-26T06:12:58;5.05;;;2.33;;
72427;SDS011;60419;48.880;18.036;2023-02-26T06:15:43;5.05;;;2.45;;
72427;SDS011;60419;48.880;18.036;2023-02-26T06:18:29;4.93;;;2.72;;
72427;SDS011;60419;48.880;18.036;2023-02-26T06:21:16;4.07;;;2.40;;
72427;SDS011;60419;48.880;18.036;2023-02-26T06:24:02;4.43;;;2.75;;
72427;SDS011;60419;48.880;18.036;2023-02-26T06:26:47;4.95;;;3.00;;
72427;SDS011;60419;48.880;18.036;2023-02-26T06:29:33;4.93;;;2.50;;
72427;SDS011;60419;48.880;18.036;2023-02-26T06:32:18;4.25;;;2.50;;
72427;SDS011;60419;48.880;18.036;2023-02-26T06:35:04;5.03;;;2.88;;
72427;SDS011;60419;48.880;18.036;2023-02-26T06:37:50;5.85;;;3.30;;
72427;SDS011;60419;48.880;18.036;2023-02-26T06:40:35;6.15;;;3.08;;
72427;SDS011;60419;48.880;18.036;2023-02-26T06:43:21;5.85;;;3.20;;
72427;SDS011;60419;48.880;18.036;2023-02-26T06:46:06;4.45;;;3.10;;
72427;SDS011;60419;48.880;18.036;2023-02-26T06:48:51;4.10;;;2.50;;
72427;SDS011;60419;48.880;18.036;2023-02-26T06:51:37;6.13;;;3.10;;
72427;SDS011;60419;48.880;18.036;2023-02-26T06:54:22;5.13;;;2.78;;
72427;SDS011;60419;48.880;18.036;2023-02-26T06:57:07;5.45;;;2.65;;
72427;SDS011;60419;48.880;18.036;2023-02-26T06:59:53;4.28;;;2.35;;
72427;SDS011;60419;48.880;18.036;2023-02-26T07:02:38;4.90;;;2.55;;
72427;SDS011;60419;48.880;18.036;2023-02-26T07:05:24;4.90;;;2.75;;
72427;SDS011;60419;48.880;18.036;2023-02-26T07:08:09;7.32;;;3.47;;
72427;SDS011;60419;48.880;18.036;2023-02-26T07:10:55;2.63;;;1.73;;
72427;SDS011;60419;48.880;18.036;2023-02-26T07:13:40;3.92;;;2.33;;
72427;SDS011;60419;48.880;18.036;2023-02-26T07:16:26;5.53;;;2.92;;
72427;SDS011;60419;48.880;18.036;2023-02-26T07:19:11;4.90;;;2.85;;
72427;SDS011;60419;48.880;18.036;2023-02-26T07:21:56;4.68;;;2.60;;
72427;SDS011;60419;48.880;18.036;2023-02-26T07:24:42;5.13;;;2.78;;
72427;SDS011;60419;48.880;18.036;2023-02-26T07:27:27;4.57;;;2.63;;
72427;SDS011;60419;48.880;18.036;2023-02-26T07:30:14;6.80;;;3.47;;
72427;SDS011;60419;48.880;18.036;2023-02-26T07:32:59;4.80;;;2.80;;
72427;SDS011;60419;48.880;18.036;2023-02-26T07:35:45;4.55;;;2.90;;
72427;SDS011;60419;48.880;18.036;2023-02-26T07:38:31;6.10;;;2.70;;
72427;SDS011;60419;48.880;18.036;2023-02-26T07:41:16;5.00;;;2.60;;
72427;SDS011;60419;48.880;18.036;2023-02-26T07:44:02;4.70;;;2.40;;
72427;SDS011;60419;48.880;18.036;2023-02-26T07:46:47;4.50;;;2.60;;
72427;SDS011;60419;48.880;18.036;2023-02-26T07:49:32;4.53;;;2.63;;
72427;SDS011;60419;48.880;18.036;2023-02-26T07:52:18;3.63;;;2.40;;
72427;SDS011;60419;48.880;18.036;2023-02-26T07:55:03;3.40;;;2.15;;
72427;SDS011;60419;48.880;18.036;2023-02-26T07:57:49;4.20;;;2.30;;
72427;SDS011;60419;48.880;18.036;2023-02-26T08:00:34;3.85;;;2.25;;
72427;SDS011;60419;48.880;18.036;2023-02-26T08:03:19;3.38;;;2.10;;
72427;SDS011;60419;48.880;18.036;2023-02-26T08:06:05;4.03;;;2.78;;
72427;SDS011;60419;48.880;18.036;2023-02-26T08:08:52;4.57;;;2.42;;
72427;SDS011;60419;48.880;18.036;2023-02-26T08:11:37;4.60;;;2.40;;
72427;SDS011;60419;48.880;18.036;2023-02-26T08:14:24;4.72;;;2.47;;
72427;SDS011;60419;48.880;18.036;2023-02-26T08:17:09;4.80;;;2.17;;
72427;SDS011;60419;48.880;18.036;2023-02-26T08:19:55;4.22;;;2.22;;
72427;SDS011;60419;48.880;18.036;2023-02-26T08:22:40;3.58;;;2.28;;
72427;SDS011;60419;48.880;18.036;2023-02-26T08:25:26;3.28;;;2.20;;
72427;SDS011;60419;48.880;18.036;2023-02-26T08:28:11;4.25;;;2.50;;
72427;SDS011;60419;48.880;18.036;2023-02-26T08:30:57;4.68;;;2.10;;
72427;SDS011;60419;48.880;18.036;2023-02-26T08:33:42;4.30;;;2.25;;
72427;SDS011;60419;48.880;18.036;2023-02-26T08:36:28;3.42;;;2.03;;
72427;SDS011;60419;48.880;18.036;2023-02-26T08:39:15;3.08;;;2.05;;
72427;SDS011;60419;48.880;18.036;2023-02-26T08:42:00;3.70;;;1.98;;
72427;SDS011;60419;48.880;18.036;2023-02-26T08:44:45;4.32;;;2.70;;
72427;SDS011;60419;48.880;18.036;2023-02-26T08:47:31;4.32;;;2.65;;
72427;SDS011;60419;48.880;18.036;2023-02-26T08:50:17;5.53;;;2.63;;
72427;SDS011;60419;48.880;18.036;2023-02-26T08:53:02;5.07;;;2.95;;
72427;SDS011;60419;48.880;18.036;2023-02-26T08:55:48;4.43;;;2.60;;
72427;SDS011;60419;48.880;18.036;2023-02-26T08:58:34;5.15;;;2.55;;
72427;SDS011;60419;48.880;18.036;2023-02-26T09:01:19;4.35;;;2.60;;
72427;SDS011;60419;48.880;18.036;2023-02-26T09:04:05;7.53;;;3.47;;
72427;SDS011;60419;48.880;18.036;2023-02-26T09:06:50;5.15;;;3.40;;
72427;SDS011;60419;48.880;18.036;2023-02-26T09:09:36;7.07;;;3.17;;
72427;SDS011;60419;48.880;18.036;2023-02-26T09:12:23;5.30;;;3.30;;
72427;SDS011;60419;48.880;18.036;2023-02-26T09:15:09;6.57;;;3.15;;
72427;SDS011;60419;48.880;18.036;2023-02-26T09:17:55;4.05;;;2.63;;
72427;SDS011;60419;48.880;18.036;2023-02-26T09:20:42;5.13;;;2.60;;
72427;SDS011;60419;48.880;18.036;2023-02-26T09:23:28;4.60;;;2.67;;
72427;SDS011;60419;48.880;18.036;2023-02-26T09:26:14;3.90;;;2.10;;
72427;SDS011;60419;48.880;18.036;2023-02-26T09:28:59;3.83;;;2.65;;
72427;SDS011;60419;48.880;18.036;2023-02-26T09:31:44;5.05;;;2.90;;
72427;SDS011;60419;48.880;18.036;2023-02-26T09:34:30;6.10;;;2.22;;
72427;SDS011;60419;48.880;18.036;2023-02-26T09:37:15;4.70;;;2.22;;
72427;SDS011;60419;48.880;18.036;2023-02-26T09:40:00;4.07;;;1.90;;
72427;SDS011;60419;48.880;18.036;2023-02-26T09:42:51;8.35;;;3.97;;
72427;SDS011;60419;48.880;18.036;2023-02-26T09:45:52;3.20;;;2.03;;
72427;SDS011;60419;48.880;18.036;2023-02-26T09:48:41;3.03;;;2.08;;
72427;SDS011;60419;48.880;18.036;2023-02-26T09:51:29;4.07;;;2.10;;
72427;SDS011;60419;48.880;18.036;2023-02-26T09:54:20;4.32;;;2.22;;
72427;SDS011;60419;48.880;18.036;2023-02-26T09:57:09;4.38;;;1.80;;
72427;SDS011;60419;48.880;18.036;2023-02-26T10:00:27;4.22;;;2.20;;
72427;SDS011;60419;48.880;18.036;2023-02-26T10:12:32;3.88;;;2.08;;
72427;SDS011;60419;48.880;18.036;2023-02-26T10:15:27;4.88;;;2.53;;
72427;SDS011;60419;48.880;18.036;2023-02-26T10:18:20;4.38;;;2.38;;
72427;SDS011;60419;48.880;18.036;2023-02-26T10:21:16;4.75;;;2.50;;
72427;SDS011;60419;48.880;18.036;2023-02-26T10:24:12;3.63;;;1.95;;
72427;SDS011;60419;48.880;18.036;2023-02-26T10:27:06;4.18;;;2.15;;
72427;SDS011;60419;48.880;18.036;2023-02-26T10:30:02;3.20;;;1.80;;
72427;SDS011;60419;48.880;18.036;2023-02-26T10:35:57;2.97;;;2.05;;
72427;SDS011;60419;48.880;18.036;2023-02-26T10:38:49;3.72;;;2.13;;
72427;SDS011;60419;48.880;18.036;2023-02-26T10:41:38;4.05;;;1.70;;
72427;SDS011;60419;48.880;18.036;2023-02-26T10:50:24;3.65;;;2.10;;
72427;SDS011;60419;48.880;18.036;2023-02-26T10:53:11;3.03;;;1.55;;
72427;SDS011;60419;48.880;18.036;2023-02-26T10:56:10;3.28;;;2.03;;
72427;SDS011;60419;48.880;18.036;2023-02-26T10:59:01;3.38;;;2.10;;
72427;SDS011;60419;48.880;18.036;2023-02-26T11:01:46;3.67;;;1.80;;
72427;SDS011;60419;48.880;18.036;2023-02-26T11:04:32;6.32;;;2.17;;
72427;SDS011;60419;48.880;18.036;2023-02-26T11:07:17;2.42;;;1.83;;
72427;SDS011;60419;48.880;18.036;2023-02-26T11:10:03;3.42;;;1.77;;
72427;SDS011;60419;48.880;18.036;2023-02-26T11:12:49;4.20;;;1.90;;
72427;SDS011;60419;48.880;18.036;2023-02-26T11:15:35;3.45;;;2.20;;
72427;SDS011;60419;48.880;18.036;2023-02-26T11:18:25;2.72;;;1.73;;
72427;SDS011;60419;48.880;18.036;2023-02-26T11:21:18;3.95;;;2.20;;
72427;SDS011;60419;48.880;18.036;2023-02-26T11:24:22;2.83;;;1.75;;
72427;SDS011;60419;48.880;18.036;2023-02-26T11:27:35;3.63;;;2.05;;
72427;SDS011;60419;48.880;18.036;2023-02-26T11:30:24;2.95;;;1.90;;
72427;SDS011;60419;48.880;18.036;2023-02-26T11:36:24;5.15;;;2.35;;
72427;SDS011;60419;48.880;18.036;2023-02-26T11:39:17;5.10;;;1.80;;
72427;SDS011;60419;48.880;18.036;2023-02-26T11:42:05;4.32;;;2.13;;
72427;SDS011;60419;48.880;18.036;2023-02-26T11:44:51;3.97;;;2.05;;
72427;SDS011;60419;48.880;18.036;2023-02-26T11:47:36;4.43;;;1.80;;
72427;SDS011;60419;48.880;18.036;2023-02-26T11:50:22;3.47;;;1.90;;
72427;SDS011;60419;48.880;18.036;2023-02-26T11:53:22;3.10;;;1.83;;
72427;SDS011;60419;48.880;18.036;2023-02-26T11:56:23;3.85;;;1.60;;
72427;SDS011;60419;48.880;18.036;2023-02-26T11:59:30;2.95;;;1.90;;
72427;SDS011;60419;48.880;18.036;2023-02-26T12:02:20;3.72;;;1.80;;
72427;SDS011;60419;48.880;18.036;2023-02-26T12:05:09;3.78;;;1.70;;
72427;SDS011;60419;48.880;18.036;2023-02-26T12:08:00;3.90;;;1.88;;
72427;SDS011;60419;48.880;18.036;2023-02-26T12:10:59;3.53;;;2.03;;
72427;SDS011;60419;48.880;18.036;2023-02-26T12:17:19;5.15;;;2.17;;
72427;SDS011;60419;48.880;18.036;2023-02-26T12:20:28;12.23;;;5.50;;
72427;SDS011;60419;48.880;18.036;2023-02-26T12:39:18;4.40;;;2.83;;
72427;SDS011;60419;48.880;18.036;2023-02-26T12:48:35;4.35;;;2.28;;
72427;SDS011;60419;48.880;18.036;2023-02-26T13:11:15;4.40;;;1.50;;
72427;SDS011;60419;48.880;18.036;2023-02-26T13:17:03;3.25;;;1.63;;
72427;SDS011;60419;48.880;18.036;2023-02-26T13:20:10;2.58;;;1.60;;
72427;SDS011;60419;48.880;18.036;2023-02-26T13:23:04;2.60;;;1.45;;
72427;SDS011;60419;48.880;18.036;2023-02-26T13:25:58;4.25;;;2.20;;
72427;SDS011;60419;48.880;18.036;2023-02-26T13:31:46;2.50;;;1.58;;
72427;SDS011;60419;48.880;18.036;2023-02-26T13:37:40;3.15;;;1.85;;
72427;SDS011;60419;48.880;18.036;2023-02-26T13:40:42;3.22;;;2.00;;
72427;SDS011;60419;48.880;18.036;2023-02-26T13:49:19;4.18;;;2.30;;
72427;SDS011;60419;48.880;18.036;2023-02-26T13:55:41;3.33;;;1.83;;
72427;SDS011;60419;48.880;18.036;2023-02-26T13:58:33;4.35;;;2.22;;
72427;SDS011;60419;48.880;18.036;2023-02-26T14:01:31;5.38;;;2.75;;
72427;SDS011;60419;48.880;18.036;2023-02-26T14:07:10;3.33;;;2.03;;
72427;SDS011;60419;48.880;18.036;2023-02-26T14:10:01;5.15;;;2.50;;
72427;SDS011;60419;48.880;18.036;2023-02-26T14:13:01;4.65;;;2.60;;
72427;SDS011;60419;48.880;18.036;2023-02-26T14:16:19;3.10;;;1.83;;
72427;SDS011;60419;48.880;18.036;2023-02-26T14:19:22;5.55;;;2.63;;
72427;SDS011;60419;48.880;18.036;2023-02-26T14:25:35;4.35;;;2.22;;
72427;SDS011;60419;48.880;18.036;2023-02-26T14:31:16;4.10;;;2.25;;
72427;SDS011;60419;48.880;18.036;2023-02-26T14:34:10;5.13;;;2.45;;
72427;SDS011;60419;48.880;18.036;2023-02-26T14:37:07;2.92;;;1.55;;
72427;SDS011;60419;48.880;18.036;2023-02-26T14:40:00;3.50;;;2.13;;
72427;SDS011;60419;48.880;18.036;2023-02-26T14:42:54;4.68;;;2.50;;
72427;SDS011;60419;48.880;18.036;2023-02-26T14:45:43;3.25;;;2.05;;
72427;SDS011;60419;48.880;18.036;2023-02-26T14:48:30;3.63;;;2.15;;
72427;SDS011;60419;48.880;18.036;2023-02-26T14:51:22;5.22;;;2.40;;
72427;SDS011;60419;48.880;18.036;2023-02-26T14:54:21;4.97;;;2.20;;
72427;SDS011;60419;48.880;18.036;2023-02-26T15:09:39;4.53;;;2.17;;
72427;SDS011;60419;48.880;18.036;2023-02-26T15:16:14;3.65;;;2.08;;
72427;SDS011;60419;48.880;18.036;2023-02-26T15:19:55;4.80;;;2.20;;
72427;SDS011;60419;48.880;18.036;2023-02-26T15:22:50;3.88;;;2.22;;
72427;SDS011;60419;48.880;18.036;2023-02-26T15:25:57;3.70;;;2.28;;
72427;SDS011;60419;48.880;18.036;2023-02-26T15:28:43;4.15;;;2.20;;
72427;SDS011;60419;48.880;18.036;2023-02-26T15:31:35;3.75;;;2.25;;
72427;SDS011;60419;48.880;18.036;2023-02-26T15:34:25;4.88;;;2.83;;
72427;SDS011;60419;48.880;18.036;2023-02-26T15:37:17;4.53;;;2.22;;
72427;SDS011;60419;48.880;18.036;2023-02-26T15:40:06;4.03;;;2.20;;
72427;SDS011;60419;48.880;18.036;2023-02-26T15:42:52;4.70;;;2.50;;
72427;SDS011;60419;48.880;18.036;2023-02-26T15:45:40;3.05;;;2.05;;
72427;SDS011;60419;48.880;18.036;2023-02-26T15:48:33;3.17;;;1.80;;
72427;SDS011;60419;48.880;18.036;2023-02-26T15:51:22;4.65;;;2.30;;
72427;SDS011;60419;48.880;18.036;2023-02-26T15:54:09;4.32;;;2.38;;
72427;SDS011;60419;48.880;18.036;2023-02-26T15:57:03;4.65;;;2.03;;
72427;SDS011;60419;48.880;18.036;2023-02-26T15:59:51;3.78;;;2.05;;
72427;SDS011;60419;48.880;18.036;2023-02-26T16:02:39;3.40;;;1.67;;
72427;SDS011;60419;48.880;18.036;2023-02-26T16:05:26;2.65;;;1.50;;
72427;SDS011;60419;48.880;18.036;2023-02-26T16:08:12;2.53;;;1.40;;
72427;SDS011;60419;48.880;18.036;2023-02-26T16:10:58;3.40;;;1.73;;
72427;SDS011;60419;48.880;18.036;2023-02-26T16:13:45;2.63;;;1.30;;
72427;SDS011;60419;48.880;18.036;2023-02-26T16:16:41;3.22;;;1.70;;
72427;SDS011;60419;48.880;18.036;2023-02-26T16:19:33;8.93;;;2.70;;
72427;SDS011;60419;48.880;18.036;2023-02-26T16:25:24;3.58;;;1.67;;
72427;SDS011;60419;48.880;18.036;2023-02-26T16:28:17;4.10;;;1.70;;
72427;SDS011;60419;48.880;18.036;2023-02-26T16:31:04;3.35;;;1.98;;
72427;SDS011;60419;48.880;18.036;2023-02-26T16:33:58;3.33;;;1.85;;
72427;SDS011;60419;48.880;18.036;2023-02-26T16:36:46;4.90;;;2.38;;
72427;SDS011;60419;48.880;18.036;2023-02-26T16:39:32;11.18;;;3.13;;
72427;SDS011;60419;48.880;18.036;2023-02-26T16:48:23;4.53;;;2.53;;
72427;SDS011;60419;48.880;18.036;2023-02-26T16:51:12;4.68;;;2.50;;
72427;SDS011;60419;48.880;18.036;2023-02-26T16:54:01;2.85;;;1.95;;
72427;SDS011;60419;48.880;18.036;2023-02-26T16:56:56;4.07;;;2.15;;
72427;SDS011;60419;48.880;18.036;2023-02-26T16:59:54;3.95;;;2.10;;
72427;SDS011;60419;48.880;18.036;2023-02-26T17:02:44;5.65;;;2.58;;
72427;SDS011;60419;48.880;18.036;2023-02-26T17:05:32;4.47;;;2.50;;
72427;SDS011;60419;48.880;18.036;2023-02-26T17:08:21;4.93;;;2.72;;
72427;SDS011;60419;48.880;18.036;2023-02-26T17:11:17;4.85;;;2.85;;
72427;SDS011;60419;48.880;18.036;2023-02-26T17:14:09;4.95;;;2.47;;
72427;SDS011;60419;48.880;18.036;2023-02-26T17:16:54;5.32;;;2.70;;
72427;SDS011;60419;48.880;18.036;2023-02-26T17:19:39;4.47;;;2.38;;
72427;SDS011;60419;48.880;18.036;2023-02-26T17:22:26;6.60;;;3.15;;
72427;SDS011;60419;48.880;18.036;2023-02-26T17:25:13;7.68;;;2.35;;
72427;SDS011;60419;48.880;18.036;2023-02-26T17:28:00;5.85;;;3.10;;
72427;SDS011;60419;48.880;18.036;2023-02-26T17:30:46;8.25;;;3.17;;
72427;SDS011;60419;48.880;18.036;2023-02-26T17:33:32;7.38;;;3.67;;
72427;SDS011;60419;48.880;18.036;2023-02-26T17:36:18;5.28;;;3.40;;
72427;SDS011;60419;48.880;18.036;2023-02-26T17:39:05;6.60;;;3.08;;
72427;SDS011;60419;48.880;18.036;2023-02-26T17:41:51;6.93;;;3.90;;
72427;SDS011;60419;48.880;18.036;2023-02-26T17:44:36;7.20;;;4.15;;
72427;SDS011;60419;48.880;18.036;2023-02-26T17:47:22;8.25;;;3.65;;
72427;SDS011;60419;48.880;18.036;2023-02-26T17:50:14;7.05;;;3.20;;
72427;SDS011;60419;48.880;18.036;2023-02-26T17:53:07;6.90;;;3.90;;
72427;SDS011;60419;48.880;18.036;2023-02-26T17:55:53;7.68;;;3.60;;
72427;SDS011;60419;48.880;18.036;2023-02-26T17:58:40;6.82;;;3.65;;
72427;SDS011;60419;48.880;18.036;2023-02-26T18:01:25;10.90;;;5.72;;
72427;SDS011;60419;48.880;18.036;2023-02-26T18:04:14;10.60;;;5.05;;
72427;SDS011;60419;48.880;18.036;2023-02-26T18:07:00;7.10;;;3.33;;
72427;SDS011;60419;48.880;18.036;2023-02-26T18:09:46;9.02;;;4.13;;
72427;SDS011;60419;48.880;18.036;2023-02-26T18:12:32;4.43;;;2.45;;
72427;SDS011;60419;48.880;18.036;2023-02-26T18:15:17;5.47;;;3.40;;
72427;SDS011;60419;48.880;18.036;2023-02-26T18:18:03;5.78;;;2.83;;
72427;SDS011;60419;48.880;18.036;2023-02-26T18:20:50;5.82;;;3.30;;
72427;SDS011;60419;48.880;18.036;2023-02-26T18:23:36;4.75;;;3.22;;
72427;SDS011;60419;48.880;18.036;2023-02-26T18:26:23;4.75;;;2.35;;
72427;SDS011;60419;48.880;18.036;2023-02-26T18:29:11;6.32;;;3.42;;
72427;SDS011;60419;48.880;18.036;2023-02-26T18:31:56;6.32;;;3.13;;
72427;SDS011;60419;48.880;18.036;2023-02-26T18:34:44;8.60;;;2.60;;
72427;SDS011;60419;48.880;18.036;2023-02-26T18:37:29;3.88;;;2.70;;
72427;SDS011;60419;48.880;18.036;2023-02-26T18:40:15;5.60;;;2.97;;
72427;SDS011;60419;48.880;18.036;2023-02-26T18:43:02;4.75;;;2.90;;
72427;SDS011;60419;48.880;18.036;2023-02-26T18:45:49;4.93;;;2.97;;
72427;SDS011;60419;48.880;18.036;2023-02-26T18:48:36;5.45;;;3.28;;
72427;SDS011;60419;48.880;18.036;2023-02-26T18:51:21;6.07;;;3.40;;
72427;SDS011;60419;48.880;18.036;2023-02-26T18:54:06;4.45;;;2.75;;
72427;SDS011;60419;48.880;18.036;2023-02-26T18:56:53;5.63;;;3.47;;
72427;SDS011;60419;48.880;18.036;2023-02-26T18:59:38;5.63;;;3.20;;
72427;SDS011;60419;48.880;18.036;2023-02-26T19:02:24;4.82;;;2.80;;
72427;SDS011;60419;48.880;18.036;2023-02-26T19:05:11;5.72;;;3.50;;
72427;SDS011;60419;48.880;18.036;2023-02-26T19:07:57;7.38;;;3.92;;
72427;SDS011;60419;48.880;18.036;2023-02-26T19:10:43;5.95;;;3.47;;
72427;SDS011;60419;48.880;18.036;2023-02-26T19:13:29;6.30;;;2.67;;
72427;SDS011;60419;48.880;18.036;2023-02-26T19:16:14;5.30;;;3.13;;
72427;SDS011;60419;48.880;18.036;2023-02-26T19:19:00;8.57;;;3.13;;
72427;SDS011;60419;48.880;18.036;2023-02-26T19:21:49;4.07;;;2.88;;
72427;SDS011;60419;48.880;18.036;2023-02-26T19:24:34;5.72;;;3.38;;
72427;SDS011;60419;48.880;18.036;2023-02-26T19:27:20;6.40;;;3.58;;
72427;SDS011;60419;48.880;18.036;2023-02-26T19:30:06;6.18;;;3.00;;